Aeroporto :
LOGIN :

Iscrizione | Disclaimer

   EN    FR    IT 

 










Sommario :    VFR   VFR Marginale   IFR   IFR Intensivo   IFR Molto Intensivo
Visibilità : 
Base nubi : 
>= 8 km
>= 3000ft
5 / 8 km
1000 / 3000 ft
1500m / 5 km
500 / 1000 ft
800 / 1500m
200 / 500 ft
< 800m
< 200 ft
Simboli :   Temporali  Nebbia  Neve Forte  Precipitazioni Forti  Vento > 20 kt
SIGMETs :   Varie  Temporali  Ghiacco  Turbolenza  Onda orograficha  Ceneri Vulcaniche






- Altitudine del aeroporto : 116 ft
- Codice IATA : ISC


EGHE - Scilly Isles / St Mary's

ULTIMO METAR :
  • 171650Z 27024G34KT 9999 -SHRA FEW020 SCT040 07/03 Q1018

METARs OBSOLETI :
  • 171620Z 27021G31KT 9999 VCSH FEW020 SCT040 08/03 Q1018
  • 171550Z 27020G30KT 9999 -SHRA FEW020 SCT040 08/03 Q1017
  • 171520Z 27023G35KT 9999 VCSH FEW015 FEW035CB 08/02 Q1017

Previsioni scadute.



MetMap, La meteo Aeronautica in un colpo d'occhio ! - Copyright ORBIFLY Dicembre 2007 - Disclaimer

ORBIFLY MET'MAP TEAM :

Programmazione e sviluppo : Alexandra Zaïnal
Concezione : Baudouin d'Aumeries
Aiuto per la programmazione : Marc-Olivier Méhu
Supporto tecnico e logistico : Manuel Goepfert
Aiuto per la traduzione : Arnaldo La Scala

Contatto : metmap@orbifly.com




FONTI E CREDITI :

   NOAA